sensor_id;sensor_type;location;lat;lon;timestamp;P1;durP1;ratioP1;P2;durP2;ratioP2
20294;SDS011;10306;52.128;5.208;2023-09-07T00:00:03;7.55;;;6.95;;
20294;SDS011;10306;52.128;5.208;2023-09-07T00:02:30;8.10;;;7.45;;
20294;SDS011;10306;52.128;5.208;2023-09-07T00:04:56;7.70;;;7.10;;
20294;SDS011;10306;52.128;5.208;2023-09-07T00:07:24;7.38;;;6.85;;
20294;SDS011;10306;52.128;5.208;2023-09-07T00:09:50;7.70;;;7.20;;
20294;SDS011;10306;52.128;5.208;2023-09-07T00:12:16;7.50;;;6.97;;
20294;SDS011;10306;52.128;5.208;2023-09-07T00:14:42;7.30;;;6.72;;
20294;SDS011;10306;52.128;5.208;2023-09-07T00:17:08;7.82;;;7.20;;
20294;SDS011;10306;52.128;5.208;2023-09-07T00:19:33;8.23;;;7.53;;
20294;SDS011;10306;52.128;5.208;2023-09-07T00:22:01;7.95;;;7.35;;
20294;SDS011;10306;52.128;5.208;2023-09-07T00:24:27;8.85;;;7.45;;
20294;SDS011;10306;52.128;5.208;2023-09-07T00:26:53;7.78;;;6.90;;
20294;SDS011;10306;52.128;5.208;2023-09-07T00:29:19;7.97;;;7.35;;
20294;SDS011;10306;52.128;5.208;2023-09-07T00:31:45;7.50;;;7.00;;
20294;SDS011;10306;52.128;5.208;2023-09-07T00:34:11;8.43;;;7.70;;
20294;SDS011;10306;52.128;5.208;2023-09-07T00:36:37;7.45;;;6.95;;
20294;SDS011;10306;52.128;5.208;2023-09-07T00:39:07;7.78;;;7.10;;
20294;SDS011;10306;52.128;5.208;2023-09-07T00:41:33;7.90;;;7.20;;
20294;SDS011;10306;52.128;5.208;2023-09-07T00:43:59;7.47;;;6.97;;
20294;SDS011;10306;52.128;5.208;2023-09-07T00:46:25;7.55;;;6.95;;
20294;SDS011;10306;52.128;5.208;2023-09-07T00:48:51;8.18;;;7.38;;
20294;SDS011;10306;52.128;5.208;2023-09-07T00:51:17;8.48;;;7.78;;
20294;SDS011;10306;52.128;5.208;2023-09-07T00:53:43;8.38;;;7.65;;
20294;SDS011;10306;52.128;5.208;2023-09-07T00:56:09;7.65;;;7.05;;
20294;SDS011;10306;52.128;5.208;2023-09-07T00:58:36;8.65;;;7.95;;
20294;SDS011;10306;52.128;5.208;2023-09-07T01:01:02;8.20;;;7.53;;
20294;SDS011;10306;52.128;5.208;2023-09-07T01:03:28;7.90;;;7.40;;
20294;SDS011;10306;52.128;5.208;2023-09-07T01:06:01;8.68;;;7.97;;
20294;SDS011;10306;52.128;5.208;2023-09-07T01:08:32;7.88;;;7.18;;
20294;SDS011;10306;52.128;5.208;2023-09-07T01:10:58;7.78;;;7.18;;
20294;SDS011;10306;52.128;5.208;2023-09-07T01:13:24;7.70;;;7.07;;
20294;SDS011;10306;52.128;5.208;2023-09-07T01:15:50;8.13;;;7.43;;
20294;SDS011;10306;52.128;5.208;2023-09-07T01:18:16;8.18;;;7.53;;
20294;SDS011;10306;52.128;5.208;2023-09-07T01:20:44;8.18;;;7.57;;
20294;SDS011;10306;52.128;5.208;2023-09-07T01:23:10;7.85;;;7.28;;
20294;SDS011;10306;52.128;5.208;2023-09-07T01:25:37;7.47;;;6.88;;
20294;SDS011;10306;52.128;5.208;2023-09-07T01:28:04;7.70;;;7.10;;
20294;SDS011;10306;52.128;5.208;2023-09-07T01:30:30;7.90;;;7.30;;
20294;SDS011;10306;52.128;5.208;2023-09-07T01:32:57;7.95;;;7.18;;
20294;SDS011;10306;52.128;5.208;2023-09-07T01:35:23;8.25;;;7.55;;
20294;SDS011;10306;52.128;5.208;2023-09-07T01:37:49;7.37;;;6.87;;
20294;SDS011;10306;52.128;5.208;2023-09-07T01:40:15;8.18;;;7.57;;
20294;SDS011;10306;52.128;5.208;2023-09-07T01:42:41;7.40;;;6.90;;
20294;SDS011;10306;52.128;5.208;2023-09-07T01:45:07;7.55;;;7.05;;
20294;SDS011;10306;52.128;5.208;2023-09-07T01:47:33;7.72;;;7.22;;
20294;SDS011;10306;52.128;5.208;2023-09-07T01:49:59;7.93;;;7.23;;
20294;SDS011;10306;52.128;5.208;2023-09-07T01:52:25;7.75;;;6.93;;
20294;SDS011;10306;52.128;5.208;2023-09-07T01:54:51;7.60;;;7.10;;
20294;SDS011;10306;52.128;5.208;2023-09-07T01:57:17;8.15;;;7.35;;
20294;SDS011;10306;52.128;5.208;2023-09-07T01:59:43;7.95;;;7.00;;
20294;SDS011;10306;52.128;5.208;2023-09-07T02:02:09;7.50;;;6.87;;
20294;SDS011;10306;52.128;5.208;2023-09-07T02:04:35;8.07;;;7.50;;
20294;SDS011;10306;52.128;5.208;2023-09-07T02:07:01;7.30;;;6.73;;
20294;SDS011;10306;52.128;5.208;2023-09-07T02:09:27;6.72;;;6.32;;
20294;SDS011;10306;52.128;5.208;2023-09-07T02:11:54;7.95;;;7.25;;
20294;SDS011;10306;52.128;5.208;2023-09-07T02:14:20;7.65;;;7.05;;
20294;SDS011;10306;52.128;5.208;2023-09-07T02:16:45;7.30;;;6.70;;
20294;SDS011;10306;52.128;5.208;2023-09-07T02:19:11;7.85;;;7.35;;
20294;SDS011;10306;52.128;5.208;2023-09-07T02:21:37;7.45;;;6.82;;
20294;SDS011;10306;52.128;5.208;2023-09-07T02:24:04;9.23;;;8.43;;
20294;SDS011;10306;52.128;5.208;2023-09-07T02:26:30;8.30;;;7.60;;
20294;SDS011;10306;52.128;5.208;2023-09-07T02:28:56;8.63;;;7.70;;
20294;SDS011;10306;52.128;5.208;2023-09-07T02:31:22;7.95;;;7.35;;
20294;SDS011;10306;52.128;5.208;2023-09-07T02:33:48;8.38;;;7.78;;
20294;SDS011;10306;52.128;5.208;2023-09-07T02:36:14;7.77;;;7.30;;
20294;SDS011;10306;52.128;5.208;2023-09-07T02:38:40;8.27;;;7.57;;
20294;SDS011;10306;52.128;5.208;2023-09-07T02:41:06;8.43;;;7.80;;
20294;SDS011;10306;52.128;5.208;2023-09-07T02:43:32;7.87;;;7.23;;
20294;SDS011;10306;52.128;5.208;2023-09-07T02:45:58;8.20;;;7.60;;
20294;SDS011;10306;52.128;5.208;2023-09-07T02:48:24;8.60;;;7.80;;
20294;SDS011;10306;52.128;5.208;2023-09-07T02:50:50;8.68;;;8.02;;
20294;SDS011;10306;52.128;5.208;2023-09-07T02:53:16;9.53;;;8.57;;
20294;SDS011;10306;52.128;5.208;2023-09-07T02:55:42;7.60;;;7.00;;
20294;SDS011;10306;52.128;5.208;2023-09-07T02:58:08;8.50;;;7.70;;
20294;SDS011;10306;52.128;5.208;2023-09-07T03:00:34;8.45;;;7.35;;
20294;SDS011;10306;52.128;5.208;2023-09-07T03:03:00;7.93;;;7.30;;
20294;SDS011;10306;52.128;5.208;2023-09-07T03:05:29;7.93;;;7.17;;
20294;SDS011;10306;52.128;5.208;2023-09-07T03:07:55;7.80;;;7.20;;
20294;SDS011;10306;52.128;5.208;2023-09-07T03:10:21;7.80;;;7.17;;
20294;SDS011;10306;52.128;5.208;2023-09-07T03:12:47;8.00;;;7.30;;
20294;SDS011;10306;52.128;5.208;2023-09-07T03:15:13;8.30;;;7.60;;
20294;SDS011;10306;52.128;5.208;2023-09-07T03:17:39;7.55;;;6.97;;
20294;SDS011;10306;52.128;5.208;2023-09-07T03:20:05;8.30;;;7.60;;
20294;SDS011;10306;52.128;5.208;2023-09-07T03:22:39;7.50;;;7.00;;
20294;SDS011;10306;52.128;5.208;2023-09-07T03:25:06;7.93;;;7.13;;
20294;SDS011;10306;52.128;5.208;2023-09-07T03:27:32;8.10;;;7.40;;
20294;SDS011;10306;52.128;5.208;2023-09-07T03:29:58;8.10;;;7.30;;
20294;SDS011;10306;52.128;5.208;2023-09-07T03:32:24;8.10;;;7.53;;
20294;SDS011;10306;52.128;5.208;2023-09-07T03:34:53;8.23;;;7.53;;
20294;SDS011;10306;52.128;5.208;2023-09-07T03:37:19;8.20;;;7.50;;
20294;SDS011;10306;52.128;5.208;2023-09-07T03:39:45;9.23;;;8.43;;
20294;SDS011;10306;52.128;5.208;2023-09-07T03:42:11;8.43;;;7.93;;
20294;SDS011;10306;52.128;5.208;2023-09-07T03:44:37;9.32;;;8.52;;
20294;SDS011;10306;52.128;5.208;2023-09-07T03:47:04;8.93;;;8.10;;
20294;SDS011;10306;52.128;5.208;2023-09-07T03:49:30;8.50;;;7.90;;
20294;SDS011;10306;52.128;5.208;2023-09-07T03:51:56;8.70;;;7.90;;
20294;SDS011;10306;52.128;5.208;2023-09-07T03:54:22;9.48;;;8.80;;
20294;SDS011;10306;52.128;5.208;2023-09-07T03:56:48;8.97;;;8.27;;
20294;SDS011;10306;52.128;5.208;2023-09-07T03:59:14;9.07;;;8.37;;
20294;SDS011;10306;52.128;5.208;2023-09-07T04:01:40;9.10;;;8.40;;
20294;SDS011;10306;52.128;5.208;2023-09-07T04:04:06;9.93;;;9.13;;
20294;SDS011;10306;52.128;5.208;2023-09-07T04:06:32;10.30;;;9.30;;
20294;SDS011;10306;52.128;5.208;2023-09-07T04:08:58;9.77;;;8.97;;
20294;SDS011;10306;52.128;5.208;2023-09-07T04:11:24;9.77;;;8.90;;
20294;SDS011;10306;52.128;5.208;2023-09-07T04:13:50;9.37;;;8.57;;
20294;SDS011;10306;52.128;5.208;2023-09-07T04:16:16;9.90;;;9.00;;
20294;SDS011;10306;52.128;5.208;2023-09-07T04:18:42;9.93;;;9.00;;
20294;SDS011;10306;52.128;5.208;2023-09-07T04:21:09;9.37;;;8.57;;
20294;SDS011;10306;52.128;5.208;2023-09-07T04:23:35;9.47;;;8.47;;
20294;SDS011;10306;52.128;5.208;2023-09-07T04:26:08;9.07;;;8.20;;
20294;SDS011;10306;52.128;5.208;2023-09-07T04:28:35;9.13;;;8.33;;
20294;SDS011;10306;52.128;5.208;2023-09-07T04:31:02;9.87;;;8.97;;
20294;SDS011;10306;52.128;5.208;2023-09-07T04:33:31;10.37;;;9.30;;
20294;SDS011;10306;52.128;5.208;2023-09-07T04:36:06;9.57;;;8.77;;
20294;SDS011;10306;52.128;5.208;2023-09-07T04:38:32;10.00;;;9.27;;
20294;SDS011;10306;52.128;5.208;2023-09-07T04:41:11;10.27;;;9.30;;
20294;SDS011;10306;52.128;5.208;2023-09-07T04:43:37;9.65;;;8.85;;
20294;SDS011;10306;52.128;5.208;2023-09-07T04:46:10;9.13;;;8.48;;
20294;SDS011;10306;52.128;5.208;2023-09-07T04:48:36;9.90;;;9.20;;
20294;SDS011;10306;52.128;5.208;2023-09-07T04:51:03;9.70;;;8.90;;
20294;SDS011;10306;52.128;5.208;2023-09-07T04:53:29;9.90;;;9.03;;
20294;SDS011;10306;52.128;5.208;2023-09-07T04:55:56;10.50;;;9.53;;
20294;SDS011;10306;52.128;5.208;2023-09-07T04:58:22;10.03;;;9.00;;
20294;SDS011;10306;52.128;5.208;2023-09-07T05:00:48;9.97;;;9.07;;
20294;SDS011;10306;52.128;5.208;2023-09-07T05:03:14;10.03;;;9.23;;
20294;SDS011;10306;52.128;5.208;2023-09-07T05:05:43;10.23;;;9.33;;
20294;SDS011;10306;52.128;5.208;2023-09-07T05:08:09;9.93;;;9.23;;
20294;SDS011;10306;52.128;5.208;2023-09-07T05:10:36;9.70;;;8.90;;
20294;SDS011;10306;52.128;5.208;2023-09-07T05:13:02;10.37;;;9.33;;
20294;SDS011;10306;52.128;5.208;2023-09-07T05:15:28;10.37;;;9.20;;
20294;SDS011;10306;52.128;5.208;2023-09-07T05:17:54;9.93;;;9.13;;
20294;SDS011;10306;52.128;5.208;2023-09-07T05:20:20;10.63;;;9.63;;
20294;SDS011;10306;52.128;5.208;2023-09-07T05:22:46;10.43;;;9.47;;
20294;SDS011;10306;52.128;5.208;2023-09-07T05:25:12;10.37;;;9.53;;
20294;SDS011;10306;52.128;5.208;2023-09-07T05:27:38;9.73;;;8.97;;
20294;SDS011;10306;52.128;5.208;2023-09-07T05:30:05;9.67;;;8.97;;
20294;SDS011;10306;52.128;5.208;2023-09-07T05:32:31;10.77;;;9.97;;
20294;SDS011;10306;52.128;5.208;2023-09-07T05:34:57;10.33;;;9.40;;
20294;SDS011;10306;52.128;5.208;2023-09-07T05:37:23;10.57;;;9.60;;
20294;SDS011;10306;52.128;5.208;2023-09-07T05:39:49;9.10;;;8.50;;
20294;SDS011;10306;52.128;5.208;2023-09-07T05:42:15;10.13;;;9.10;;
20294;SDS011;10306;52.128;5.208;2023-09-07T05:44:42;10.93;;;9.43;;
20294;SDS011;10306;52.128;5.208;2023-09-07T05:47:08;10.80;;;9.80;;
20294;SDS011;10306;52.128;5.208;2023-09-07T05:49:34;11.23;;;10.07;;
20294;SDS011;10306;52.128;5.208;2023-09-07T05:52:01;10.47;;;9.40;;
20294;SDS011;10306;52.128;5.208;2023-09-07T05:54:27;9.93;;;9.13;;
20294;SDS011;10306;52.128;5.208;2023-09-07T05:56:53;10.77;;;9.67;;
20294;SDS011;10306;52.128;5.208;2023-09-07T05:59:19;11.27;;;9.80;;
20294;SDS011;10306;52.128;5.208;2023-09-07T06:01:45;10.43;;;9.43;;
20294;SDS011;10306;52.128;5.208;2023-09-07T06:04:11;10.30;;;9.47;;
20294;SDS011;10306;52.128;5.208;2023-09-07T06:06:38;10.67;;;9.73;;
20294;SDS011;10306;52.128;5.208;2023-09-07T06:09:04;11.57;;;10.50;;
20294;SDS011;10306;52.128;5.208;2023-09-07T06:11:30;10.97;;;10.03;;
20294;SDS011;10306;52.128;5.208;2023-09-07T06:13:58;11.80;;;10.03;;
20294;SDS011;10306;52.128;5.208;2023-09-07T06:16:24;10.50;;;9.60;;
20294;SDS011;10306;52.128;5.208;2023-09-07T06:18:50;11.50;;;10.57;;
20294;SDS011;10306;52.128;5.208;2023-09-07T06:21:16;10.45;;;9.68;;
20294;SDS011;10306;52.128;5.208;2023-09-07T06:23:43;10.57;;;9.60;;
20294;SDS011;10306;52.128;5.208;2023-09-07T06:26:09;10.07;;;9.17;;
20294;SDS011;10306;52.128;5.208;2023-09-07T06:28:35;10.52;;;9.45;;
20294;SDS011;10306;52.128;5.208;2023-09-07T06:31:01;11.15;;;9.63;;
20294;SDS011;10306;52.128;5.208;2023-09-07T06:33:27;10.15;;;9.43;;
20294;SDS011;10306;52.128;5.208;2023-09-07T06:35:52;9.80;;;9.00;;
20294;SDS011;10306;52.128;5.208;2023-09-07T06:38:18;10.07;;;9.27;;
20294;SDS011;10306;52.128;5.208;2023-09-07T06:40:50;9.18;;;8.48;;
20294;SDS011;10306;52.128;5.208;2023-09-07T06:43:16;8.88;;;8.18;;
20294;SDS011;10306;52.128;5.208;2023-09-07T06:45:42;8.93;;;8.18;;
20294;SDS011;10306;52.128;5.208;2023-09-07T06:48:08;8.85;;;8.18;;
20294;SDS011;10306;52.128;5.208;2023-09-07T06:50:34;9.45;;;8.52;;
20294;SDS011;10306;52.128;5.208;2023-09-07T06:53:00;9.10;;;8.30;;
20294;SDS011;10306;52.128;5.208;2023-09-07T06:55:26;9.77;;;8.65;;
20294;SDS011;10306;52.128;5.208;2023-09-07T06:57:53;9.38;;;8.48;;
20294;SDS011;10306;52.128;5.208;2023-09-07T07:00:20;7.95;;;7.47;;
20294;SDS011;10306;52.128;5.208;2023-09-07T07:02:46;8.00;;;7.40;;
20294;SDS011;10306;52.128;5.208;2023-09-07T07:05:12;8.30;;;7.50;;
20294;SDS011;10306;52.128;5.208;2023-09-07T07:07:38;9.35;;;7.60;;
20294;SDS011;10306;52.128;5.208;2023-09-07T07:10:05;8.40;;;7.80;;
20294;SDS011;10306;52.128;5.208;2023-09-07T07:12:31;7.35;;;6.68;;
20294;SDS011;10306;52.128;5.208;2023-09-07T07:14:59;7.50;;;6.82;;
20294;SDS011;10306;52.128;5.208;2023-09-07T07:17:26;7.70;;;6.97;;
20294;SDS011;10306;52.128;5.208;2023-09-07T07:19:52;7.60;;;7.00;;
20294;SDS011;10306;52.128;5.208;2023-09-07T07:22:18;7.05;;;6.43;;
20294;SDS011;10306;52.128;5.208;2023-09-07T07:24:44;7.18;;;6.47;;
20294;SDS011;10306;52.128;5.208;2023-09-07T07:27:10;6.60;;;6.00;;
20294;SDS011;10306;52.128;5.208;2023-09-07T07:29:36;7.25;;;5.68;;
20294;SDS011;10306;52.128;5.208;2023-09-07T07:32:03;6.72;;;6.10;;
20294;SDS011;10306;52.128;5.208;2023-09-07T07:34:29;5.70;;;5.40;;
20294;SDS011;10306;52.128;5.208;2023-09-07T07:36:55;5.32;;;5.03;;
20294;SDS011;10306;52.128;5.208;2023-09-07T07:39:21;5.63;;;5.28;;
20294;SDS011;10306;52.128;5.208;2023-09-07T07:41:47;5.95;;;5.47;;
20294;SDS011;10306;52.128;5.208;2023-09-07T07:44:13;5.53;;;5.00;;
20294;SDS011;10306;52.128;5.208;2023-09-07T07:46:39;6.07;;;5.53;;
20294;SDS011;10306;52.128;5.208;2023-09-07T07:49:05;5.10;;;4.70;;
20294;SDS011;10306;52.128;5.208;2023-09-07T07:51:31;6.13;;;5.00;;
20294;SDS011;10306;52.128;5.208;2023-09-07T07:53:57;5.05;;;4.75;;
20294;SDS011;10306;52.128;5.208;2023-09-07T07:56:23;5.55;;;5.00;;
20294;SDS011;10306;52.128;5.208;2023-09-07T07:58:49;4.68;;;4.47;;
20294;SDS011;10306;52.128;5.208;2023-09-07T08:01:16;5.05;;;4.50;;
20294;SDS011;10306;52.128;5.208;2023-09-07T08:03:42;4.60;;;4.30;;
20294;SDS011;10306;52.128;5.208;2023-09-07T08:06:08;4.47;;;4.25;;
20294;SDS011;10306;52.128;5.208;2023-09-07T08:08:35;4.68;;;4.32;;
20294;SDS011;10306;52.128;5.208;2023-09-07T08:11:01;4.47;;;4.20;;
20294;SDS011;10306;52.128;5.208;2023-09-07T08:13:31;4.35;;;3.97;;
20294;SDS011;10306;52.128;5.208;2023-09-07T08:15:57;4.50;;;4.20;;
20294;SDS011;10306;52.128;5.208;2023-09-07T08:18:23;4.38;;;4.18;;
20294;SDS011;10306;52.128;5.208;2023-09-07T08:20:49;4.32;;;4.03;;
20294;SDS011;10306;52.128;5.208;2023-09-07T08:23:15;4.35;;;4.07;;
20294;SDS011;10306;52.128;5.208;2023-09-07T08:25:41;4.80;;;4.55;;
20294;SDS011;10306;52.128;5.208;2023-09-07T08:28:11;4.25;;;3.92;;
20294;SDS011;10306;52.128;5.208;2023-09-07T08:30:37;4.00;;;3.80;;
20294;SDS011;10306;52.128;5.208;2023-09-07T08:33:04;8.13;;;4.00;;
20294;SDS011;10306;52.128;5.208;2023-09-07T08:35:31;4.18;;;3.88;;
20294;SDS011;10306;52.128;5.208;2023-09-07T08:38:00;4.43;;;4.20;;
20294;SDS011;10306;52.128;5.208;2023-09-07T08:40:29;4.43;;;4.15;;
20294;SDS011;10306;52.128;5.208;2023-09-07T08:42:57;3.92;;;3.72;;
20294;SDS011;10306;52.128;5.208;2023-09-07T08:45:25;5.45;;;3.90;;
20294;SDS011;10306;52.128;5.208;2023-09-07T08:47:51;4.63;;;4.22;;
20294;SDS011;10306;52.128;5.208;2023-09-07T08:50:18;4.32;;;4.03;;
20294;SDS011;10306;52.128;5.208;2023-09-07T08:52:45;5.22;;;4.18;;
20294;SDS011;10306;52.128;5.208;2023-09-07T08:55:12;3.63;;;3.53;;
20294;SDS011;10306;52.128;5.208;2023-09-07T08:57:38;4.30;;;4.00;;
20294;SDS011;10306;52.128;5.208;2023-09-07T09:00:05;3.83;;;3.53;;
20294;SDS011;10306;52.128;5.208;2023-09-07T09:02:38;3.75;;;3.45;;
20294;SDS011;10306;52.128;5.208;2023-09-07T09:05:04;4.13;;;3.92;;
20294;SDS011;10306;52.128;5.208;2023-09-07T09:07:31;3.70;;;3.50;;
20294;SDS011;10306;52.128;5.208;2023-09-07T09:10:06;4.97;;;3.80;;
20294;SDS011;10306;52.128;5.208;2023-09-07T09:12:32;4.13;;;3.92;;
20294;SDS011;10306;52.128;5.208;2023-09-07T09:14:59;4.05;;;3.75;;
20294;SDS011;10306;52.128;5.208;2023-09-07T09:17:28;4.82;;;4.25;;
20294;SDS011;10306;52.128;5.208;2023-09-07T09:19:54;4.60;;;4.30;;
20294;SDS011;10306;52.128;5.208;2023-09-07T09:22:20;3.97;;;3.75;;
20294;SDS011;10306;52.128;5.208;2023-09-07T09:24:47;4.20;;;3.90;;
20294;SDS011;10306;52.128;5.208;2023-09-07T09:27:13;3.90;;;3.60;;
20294;SDS011;10306;52.128;5.208;2023-09-07T09:29:39;3.85;;;3.65;;
20294;SDS011;10306;52.128;5.208;2023-09-07T09:32:09;4.55;;;3.60;;
20294;SDS011;10306;52.128;5.208;2023-09-07T09:34:36;6.03;;;3.72;;
20294;SDS011;10306;52.128;5.208;2023-09-07T09:37:02;4.05;;;3.63;;
20294;SDS011;10306;52.128;5.208;2023-09-07T09:39:29;4.05;;;3.75;;
20294;SDS011;10306;52.128;5.208;2023-09-07T09:41:55;3.80;;;3.60;;
20294;SDS011;10306;52.128;5.208;2023-09-07T09:44:21;4.03;;;3.72;;
20294;SDS011;10306;52.128;5.208;2023-09-07T09:46:52;4.70;;;3.55;;
20294;SDS011;10306;52.128;5.208;2023-09-07T09:49:21;8.45;;;4.68;;
20294;SDS011;10306;52.128;5.208;2023-09-07T09:51:48;6.93;;;3.58;;
20294;SDS011;10306;52.128;5.208;2023-09-07T09:54:16;3.80;;;3.50;;
20294;SDS011;10306;52.128;5.208;2023-09-07T09:56:42;4.15;;;3.90;;
20294;SDS011;10306;52.128;5.208;2023-09-07T09:59:09;3.90;;;3.67;;
20294;SDS011;10306;52.128;5.208;2023-09-07T10:01:43;4.15;;;3.75;;
20294;SDS011;10306;52.128;5.208;2023-09-07T10:04:10;5.25;;;3.40;;
20294;SDS011;10306;52.128;5.208;2023-09-07T10:06:37;3.63;;;3.40;;
20294;SDS011;10306;52.128;5.208;2023-09-07T10:09:06;3.90;;;3.50;;
20294;SDS011;10306;52.128;5.208;2023-09-07T10:11:36;4.05;;;3.65;;
20294;SDS011;10306;52.128;5.208;2023-09-07T10:14:03;3.70;;;3.60;;
20294;SDS011;10306;52.128;5.208;2023-09-07T10:16:49;3.95;;;3.30;;
20294;SDS011;10306;52.128;5.208;2023-09-07T10:19:18;3.90;;;3.42;;
20294;SDS011;10306;52.128;5.208;2023-09-07T10:21:44;3.38;;;3.17;;
20294;SDS011;10306;52.128;5.208;2023-09-07T10:24:10;5.72;;;3.40;;
20294;SDS011;10306;52.128;5.208;2023-09-07T10:26:36;3.03;;;2.92;;
20294;SDS011;10306;52.128;5.208;2023-09-07T10:29:02;4.28;;;3.70;;
20294;SDS011;10306;52.128;5.208;2023-09-07T10:31:30;3.92;;;3.50;;
20294;SDS011;10306;52.128;5.208;2023-09-07T10:33:56;3.42;;;3.33;;
20294;SDS011;10306;52.128;5.208;2023-09-07T10:36:33;3.25;;;3.13;;
20294;SDS011;10306;52.128;5.208;2023-09-07T10:39:00;3.35;;;3.17;;
20294;SDS011;10306;52.128;5.208;2023-09-07T10:41:26;3.50;;;3.40;;
20294;SDS011;10306;52.128;5.208;2023-09-07T10:43:55;3.42;;;3.13;;
20294;SDS011;10306;52.128;5.208;2023-09-07T10:46:22;3.70;;;3.47;;
20294;SDS011;10306;52.128;5.208;2023-09-07T10:48:52;3.85;;;3.65;;
20294;SDS011;10306;52.128;5.208;2023-09-07T10:51:18;3.70;;;3.40;;
20294;SDS011;10306;52.128;5.208;2023-09-07T10:53:44;3.50;;;3.40;;
20294;SDS011;10306;52.128;5.208;2023-09-07T10:56:10;3.53;;;3.33;;
20294;SDS011;10306;52.128;5.208;2023-09-07T10:58:37;4.85;;;3.30;;
20294;SDS011;10306;52.128;5.208;2023-09-07T11:01:07;2.78;;;2.67;;
20294;SDS011;10306;52.128;5.208;2023-09-07T11:03:34;3.50;;;3.38;;
20294;SDS011;10306;52.128;5.208;2023-09-07T11:06:08;3.65;;;3.47;;
20294;SDS011;10306;52.128;5.208;2023-09-07T11:08:36;3.90;;;3.70;;
20294;SDS011;10306;52.128;5.208;2023-09-07T11:11:02;3.75;;;3.50;;
20294;SDS011;10306;52.128;5.208;2023-09-07T11:13:28;4.05;;;3.83;;
20294;SDS011;10306;52.128;5.208;2023-09-07T11:15:55;3.80;;;3.50;;
20294;SDS011;10306;52.128;5.208;2023-09-07T11:18:22;3.60;;;3.50;;
20294;SDS011;10306;52.128;5.208;2023-09-07T11:20:48;3.80;;;3.50;;
20294;SDS011;10306;52.128;5.208;2023-09-07T11:23:16;3.83;;;3.50;;
20294;SDS011;10306;52.128;5.208;2023-09-07T11:25:43;4.00;;;3.80;;
20294;SDS011;10306;52.128;5.208;2023-09-07T11:28:09;3.42;;;3.33;;
20294;SDS011;10306;52.128;5.208;2023-09-07T11:30:48;3.60;;;3.40;;
20294;SDS011;10306;52.128;5.208;2023-09-07T11:33:17;3.45;;;3.20;;
20294;SDS011;10306;52.128;5.208;2023-09-07T11:35:43;3.60;;;3.35;;
20294;SDS011;10306;52.128;5.208;2023-09-07T11:38:12;3.83;;;3.63;;
20294;SDS011;10306;52.128;5.208;2023-09-07T11:40:38;3.63;;;3.42;;
20294;SDS011;10306;52.128;5.208;2023-09-07T11:43:04;3.80;;;3.60;;
20294;SDS011;10306;52.128;5.208;2023-09-07T11:45:30;3.65;;;3.50;;
20294;SDS011;10306;52.128;5.208;2023-09-07T11:47:57;4.13;;;3.47;;
20294;SDS011;10306;52.128;5.208;2023-09-07T11:50:23;5.13;;;3.60;;
20294;SDS011;10306;52.128;5.208;2023-09-07T11:52:50;3.40;;;3.30;;
20294;SDS011;10306;52.128;5.208;2023-09-07T11:55:16;3.85;;;3.55;;
20294;SDS011;10306;52.128;5.208;2023-09-07T11:57:42;3.70;;;3.60;;
20294;SDS011;10306;52.128;5.208;2023-09-07T12:00:09;3.92;;;3.50;;
20294;SDS011;10306;52.128;5.208;2023-09-07T12:02:36;4.13;;;3.75;;
20294;SDS011;10306;52.128;5.208;2023-09-07T12:05:02;3.70;;;3.50;;
20294;SDS011;10306;52.128;5.208;2023-09-07T12:07:28;3.58;;;3.38;;
20294;SDS011;10306;52.128;5.208;2023-09-07T12:09:56;4.07;;;3.88;;
20294;SDS011;10306;52.128;5.208;2023-09-07T12:12:22;3.70;;;3.50;;
20294;SDS011;10306;52.128;5.208;2023-09-07T12:14:48;4.00;;;3.80;;
20294;SDS011;10306;52.128;5.208;2023-09-07T12:17:14;3.55;;;3.38;;
20294;SDS011;10306;52.128;5.208;2023-09-07T12:19:41;3.80;;;3.60;;
20294;SDS011;10306;52.128;5.208;2023-09-07T12:22:10;3.90;;;3.58;;
20294;SDS011;10306;52.128;5.208;2023-09-07T12:24:36;4.82;;;3.80;;
20294;SDS011;10306;52.128;5.208;2023-09-07T12:27:02;3.95;;;3.65;;
20294;SDS011;10306;52.128;5.208;2023-09-07T12:29:28;3.72;;;3.53;;
20294;SDS011;10306;52.128;5.208;2023-09-07T12:31:54;3.85;;;3.42;;
20294;SDS011;10306;52.128;5.208;2023-09-07T12:34:20;3.70;;;3.40;;
20294;SDS011;10306;52.128;5.208;2023-09-07T12:36:46;4.15;;;3.85;;
20294;SDS011;10306;52.128;5.208;2023-09-07T12:39:14;4.60;;;3.78;;
20294;SDS011;10306;52.128;5.208;2023-09-07T12:41:40;3.33;;;3.13;;
20294;SDS011;10306;52.128;5.208;2023-09-07T12:44:06;2.95;;;2.85;;
20294;SDS011;10306;52.128;5.208;2023-09-07T12:46:32;3.10;;;3.00;;
20294;SDS011;10306;52.128;5.208;2023-09-07T12:48:58;3.08;;;2.97;;
20294;SDS011;10306;52.128;5.208;2023-09-07T12:51:24;3.30;;;3.15;;
20294;SDS011;10306;52.128;5.208;2023-09-07T12:53:50;3.30;;;3.10;;
20294;SDS011;10306;52.128;5.208;2023-09-07T12:56:16;3.35;;;3.15;;
20294;SDS011;10306;52.128;5.208;2023-09-07T12:58:43;2.90;;;2.80;;
20294;SDS011;10306;52.128;5.208;2023-09-07T13:01:09;3.20;;;2.88;;
20294;SDS011;10306;52.128;5.208;2023-09-07T13:03:37;3.03;;;2.90;;
20294;SDS011;10306;52.128;5.208;2023-09-07T13:06:03;3.28;;;3.10;;
20294;SDS011;10306;52.128;5.208;2023-09-07T13:08:29;2.90;;;2.80;;
20294;SDS011;10306;52.128;5.208;2023-09-07T13:10:55;3.00;;;2.80;;
20294;SDS011;10306;52.128;5.208;2023-09-07T13:13:22;9.20;;;8.45;;
20294;SDS011;10306;52.128;5.208;2023-09-07T13:15:50;6.55;;;6.05;;
20294;SDS011;10306;52.128;5.208;2023-09-07T13:18:16;4.13;;;3.92;;
20294;SDS011;10306;52.128;5.208;2023-09-07T13:20:42;3.85;;;3.10;;
20294;SDS011;10306;52.128;5.208;2023-09-07T13:23:10;3.70;;;3.50;;
20294;SDS011;10306;52.128;5.208;2023-09-07T13:25:36;3.83;;;3.47;;
20294;SDS011;10306;52.128;5.208;2023-09-07T13:28:02;5.55;;;3.50;;
20294;SDS011;10306;52.128;5.208;2023-09-07T13:30:28;4.40;;;3.13;;
20294;SDS011;10306;52.128;5.208;2023-09-07T13:32:54;3.42;;;3.22;;
20294;SDS011;10306;52.128;5.208;2023-09-07T13:35:20;4.00;;;3.22;;
20294;SDS011;10306;52.128;5.208;2023-09-07T13:37:46;3.33;;;3.13;;
20294;SDS011;10306;52.128;5.208;2023-09-07T13:40:12;3.42;;;3.13;;
20294;SDS011;10306;52.128;5.208;2023-09-07T13:42:40;3.53;;;3.30;;
20294;SDS011;10306;52.128;5.208;2023-09-07T13:45:06;3.45;;;3.28;;
20294;SDS011;10306;52.128;5.208;2023-09-07T13:47:32;3.30;;;3.00;;
20294;SDS011;10306;52.128;5.208;2023-09-07T13:49:58;3.40;;;3.20;;
20294;SDS011;10306;52.128;5.208;2023-09-07T13:52:24;3.55;;;3.25;;
20294;SDS011;10306;52.128;5.208;2023-09-07T13:54:51;3.67;;;3.40;;
20294;SDS011;10306;52.128;5.208;2023-09-07T13:57:17;3.33;;;3.13;;
20294;SDS011;10306;52.128;5.208;2023-09-07T13:59:42;4.05;;;3.30;;
20294;SDS011;10306;52.128;5.208;2023-09-07T14:02:08;3.70;;;3.35;;
20294;SDS011;10306;52.128;5.208;2023-09-07T14:04:34;3.25;;;3.05;;
20294;SDS011;10306;52.128;5.208;2023-09-07T14:07:00;3.40;;;3.30;;
20294;SDS011;10306;52.128;5.208;2023-09-07T14:09:26;3.65;;;3.30;;
20294;SDS011;10306;52.128;5.208;2023-09-07T14:11:52;3.00;;;2.90;;
20294;SDS011;10306;52.128;5.208;2023-09-07T14:14:18;2.88;;;2.78;;
20294;SDS011;10306;52.128;5.208;2023-09-07T14:16:45;5.95;;;3.70;;
20294;SDS011;10306;52.128;5.208;2023-09-07T14:19:11;3.55;;;3.45;;
20294;SDS011;10306;52.128;5.208;2023-09-07T14:21:37;3.42;;;3.22;;
20294;SDS011;10306;52.128;5.208;2023-09-07T14:24:04;3.70;;;3.42;;
20294;SDS011;10306;52.128;5.208;2023-09-07T14:26:30;3.25;;;3.15;;
20294;SDS011;10306;52.128;5.208;2023-09-07T14:28:55;3.40;;;3.30;;
20294;SDS011;10306;52.128;5.208;2023-09-07T14:31:21;3.60;;;3.40;;
20294;SDS011;10306;52.128;5.208;2023-09-07T14:33:47;3.80;;;3.50;;
20294;SDS011;10306;52.128;5.208;2023-09-07T14:36:13;3.40;;;3.30;;
20294;SDS011;10306;52.128;5.208;2023-09-07T14:38:41;3.83;;;3.63;;
20294;SDS011;10306;52.128;5.208;2023-09-07T14:41:10;3.78;;;3.60;;